sensor_id;sensor_type;location;lat;lon;timestamp;P1;durP1;ratioP1;P2;durP2;ratioP2
27939;SDS011;15275;51.716;14.324;2023-03-01T00:01:48;21.15;;;8.90;;
27939;SDS011;15275;51.716;14.324;2023-03-01T00:04:14;24.65;;;9.07;;
27939;SDS011;15275;51.716;14.324;2023-03-01T00:06:39;19.70;;;8.85;;
27939;SDS011;15275;51.716;14.324;2023-03-01T00:09:07;23.13;;;9.85;;
27939;SDS011;15275;51.716;14.324;2023-03-01T00:11:33;20.63;;;9.02;;
27939;SDS011;15275;51.716;14.324;2023-03-01T00:14:00;18.75;;;8.65;;
27939;SDS011;15275;51.716;14.324;2023-03-01T00:16:28;19.65;;;8.63;;
27939;SDS011;15275;51.716;14.324;2023-03-01T00:18:58;20.65;;;9.60;;
27939;SDS011;15275;51.716;14.324;2023-03-01T00:21:25;17.88;;;7.63;;
27939;SDS011;15275;51.716;14.324;2023-03-01T00:23:52;19.05;;;8.75;;
27939;SDS011;15275;51.716;14.324;2023-03-01T00:26:19;22.60;;;9.05;;
27939;SDS011;15275;51.716;14.324;2023-03-01T00:28:48;19.58;;;8.77;;
27939;SDS011;15275;51.716;14.324;2023-03-01T00:31:16;15.18;;;7.78;;
27939;SDS011;15275;51.716;14.324;2023-03-01T00:33:47;21.42;;;9.02;;
27939;SDS011;15275;51.716;14.324;2023-03-01T00:36:14;20.13;;;8.13;;
27939;SDS011;15275;51.716;14.324;2023-03-01T00:38:41;19.25;;;8.60;;
27939;SDS011;15275;51.716;14.324;2023-03-01T00:41:12;17.92;;;8.27;;
27939;SDS011;15275;51.716;14.324;2023-03-01T00:43:40;16.85;;;8.40;;
27939;SDS011;15275;51.716;14.324;2023-03-01T00:46:08;19.67;;;8.80;;
27939;SDS011;15275;51.716;14.324;2023-03-01T00:48:39;16.42;;;7.65;;
27939;SDS011;15275;51.716;14.324;2023-03-01T00:51:10;20.58;;;9.23;;
27939;SDS011;15275;51.716;14.324;2023-03-01T00:53:51;16.42;;;7.95;;
27939;SDS011;15275;51.716;14.324;2023-03-01T00:56:19;17.08;;;8.55;;
27939;SDS011;15275;51.716;14.324;2023-03-01T00:58:46;15.43;;;8.23;;
27939;SDS011;15275;51.716;14.324;2023-03-01T01:01:20;17.75;;;7.90;;
27939;SDS011;15275;51.716;14.324;2023-03-01T01:03:49;17.70;;;8.30;;
27939;SDS011;15275;51.716;14.324;2023-03-01T01:06:29;22.35;;;8.95;;
27939;SDS011;15275;51.716;14.324;2023-03-01T01:08:58;17.25;;;7.65;;
27939;SDS011;15275;51.716;14.324;2023-03-01T01:11:26;16.80;;;7.25;;
27939;SDS011;15275;51.716;14.324;2023-03-01T01:13:54;20.00;;;8.95;;
27939;SDS011;15275;51.716;14.324;2023-03-01T01:16:22;19.60;;;8.30;;
27939;SDS011;15275;51.716;14.324;2023-03-01T01:18:50;15.43;;;7.60;;
27939;SDS011;15275;51.716;14.324;2023-03-01T01:21:18;14.45;;;7.20;;
27939;SDS011;15275;51.716;14.324;2023-03-01T01:23:47;18.30;;;7.75;;
27939;SDS011;15275;51.716;14.324;2023-03-01T01:26:14;18.83;;;8.60;;
27939;SDS011;15275;51.716;14.324;2023-03-01T01:28:52;18.80;;;7.85;;
27939;SDS011;15275;51.716;14.324;2023-03-01T01:31:19;18.95;;;7.70;;
27939;SDS011;15275;51.716;14.324;2023-03-01T01:33:45;21.02;;;9.20;;
27939;SDS011;15275;51.716;14.324;2023-03-01T01:36:11;20.70;;;7.43;;
27939;SDS011;15275;51.716;14.324;2023-03-01T01:38:40;17.58;;;8.20;;
27939;SDS011;15275;51.716;14.324;2023-03-01T01:41:07;17.98;;;8.25;;
27939;SDS011;15275;51.716;14.324;2023-03-01T01:43:41;19.02;;;8.60;;
27939;SDS011;15275;51.716;14.324;2023-03-01T01:49:07;19.30;;;8.32;;
27939;SDS011;15275;51.716;14.324;2023-03-01T01:54:47;21.88;;;9.57;;
27939;SDS011;15275;51.716;14.324;2023-03-01T01:57:24;18.13;;;8.73;;
27939;SDS011;15275;51.716;14.324;2023-03-01T02:00:18;19.50;;;8.40;;
27939;SDS011;15275;51.716;14.324;2023-03-01T02:02:47;21.95;;;9.10;;
27939;SDS011;15275;51.716;14.324;2023-03-01T02:05:42;20.77;;;8.40;;
27939;SDS011;15275;51.716;14.324;2023-03-01T02:08:19;19.17;;;9.05;;
27939;SDS011;15275;51.716;14.324;2023-03-01T02:10:46;18.40;;;8.02;;
27939;SDS011;15275;51.716;14.324;2023-03-01T02:13:14;19.40;;;7.70;;
27939;SDS011;15275;51.716;14.324;2023-03-01T02:15:40;18.10;;;8.45;;
27939;SDS011;15275;51.716;14.324;2023-03-01T02:18:09;21.55;;;8.85;;
27939;SDS011;15275;51.716;14.324;2023-03-01T02:26:18;18.25;;;8.35;;
27939;SDS011;15275;51.716;14.324;2023-03-01T02:28:56;20.73;;;8.18;;
27939;SDS011;15275;51.716;14.324;2023-03-01T02:31:22;17.50;;;8.02;;
27939;SDS011;15275;51.716;14.324;2023-03-01T02:34:07;19.42;;;8.85;;
27939;SDS011;15275;51.716;14.324;2023-03-01T02:36:47;30.10;;;9.43;;
27939;SDS011;15275;51.716;14.324;2023-03-01T02:39:18;18.88;;;9.25;;
27939;SDS011;15275;51.716;14.324;2023-03-01T02:41:51;18.50;;;8.15;;
27939;SDS011;15275;51.716;14.324;2023-03-01T02:44:20;16.00;;;7.57;;
27939;SDS011;15275;51.716;14.324;2023-03-01T02:46:50;16.33;;;8.13;;
27939;SDS011;15275;51.716;14.324;2023-03-01T02:49:20;16.45;;;8.38;;
27939;SDS011;15275;51.716;14.324;2023-03-01T02:55:24;21.08;;;8.57;;
27939;SDS011;15275;51.716;14.324;2023-03-01T02:57:50;20.00;;;9.45;;
27939;SDS011;15275;51.716;14.324;2023-03-01T03:00:27;20.13;;;8.75;;
27939;SDS011;15275;51.716;14.324;2023-03-01T03:02:59;20.95;;;9.07;;
27939;SDS011;15275;51.716;14.324;2023-03-01T03:05:29;24.60;;;9.48;;
27939;SDS011;15275;51.716;14.324;2023-03-01T03:07:57;21.10;;;8.70;;
27939;SDS011;15275;51.716;14.324;2023-03-01T03:10:26;16.80;;;8.35;;
27939;SDS011;15275;51.716;14.324;2023-03-01T03:12:57;20.90;;;8.80;;
27939;SDS011;15275;51.716;14.324;2023-03-01T03:15:32;22.25;;;10.18;;
27939;SDS011;15275;51.716;14.324;2023-03-01T03:18:01;20.58;;;9.00;;
27939;SDS011;15275;51.716;14.324;2023-03-01T03:20:31;19.95;;;9.20;;
27939;SDS011;15275;51.716;14.324;2023-03-01T03:22:58;22.63;;;9.43;;
27939;SDS011;15275;51.716;14.324;2023-03-01T03:25:25;28.17;;;9.50;;
27939;SDS011;15275;51.716;14.324;2023-03-01T03:27:52;23.83;;;10.30;;
27939;SDS011;15275;51.716;14.324;2023-03-01T03:30:21;20.75;;;9.13;;
27939;SDS011;15275;51.716;14.324;2023-03-01T03:32:50;17.42;;;8.75;;
27939;SDS011;15275;51.716;14.324;2023-03-01T03:35:20;21.13;;;9.15;;
27939;SDS011;15275;51.716;14.324;2023-03-01T03:37:55;19.08;;;8.23;;
27939;SDS011;15275;51.716;14.324;2023-03-01T03:43:10;21.98;;;9.27;;
27939;SDS011;15275;51.716;14.324;2023-03-01T03:45:39;20.75;;;8.88;;
27939;SDS011;15275;51.716;14.324;2023-03-01T03:48:07;22.42;;;9.18;;
27939;SDS011;15275;51.716;14.324;2023-03-01T03:50:34;20.05;;;9.40;;
27939;SDS011;15275;51.716;14.324;2023-03-01T03:53:03;20.25;;;9.30;;
27939;SDS011;15275;51.716;14.324;2023-03-01T03:55:37;19.10;;;8.02;;
27939;SDS011;15275;51.716;14.324;2023-03-01T03:58:05;21.77;;;9.50;;
27939;SDS011;15275;51.716;14.324;2023-03-01T04:00:37;22.17;;;9.48;;
27939;SDS011;15275;51.716;14.324;2023-03-01T04:03:08;19.33;;;9.05;;
27939;SDS011;15275;51.716;14.324;2023-03-01T04:05:35;20.88;;;10.13;;
27939;SDS011;15275;51.716;14.324;2023-03-01T04:08:02;22.92;;;9.10;;
27939;SDS011;15275;51.716;14.324;2023-03-01T04:10:33;18.10;;;8.55;;
27939;SDS011;15275;51.716;14.324;2023-03-01T04:13:05;23.65;;;9.90;;
27939;SDS011;15275;51.716;14.324;2023-03-01T04:15:34;18.98;;;8.63;;
27939;SDS011;15275;51.716;14.324;2023-03-01T04:18:00;19.65;;;9.85;;
27939;SDS011;15275;51.716;14.324;2023-03-01T04:20:28;19.00;;;8.90;;
27939;SDS011;15275;51.716;14.324;2023-03-01T04:22:59;23.05;;;9.85;;
27939;SDS011;15275;51.716;14.324;2023-03-01T04:25:35;21.63;;;9.68;;
27939;SDS011;15275;51.716;14.324;2023-03-01T04:28:06;21.83;;;9.40;;
27939;SDS011;15275;51.716;14.324;2023-03-01T04:30:34;17.88;;;8.00;;
27939;SDS011;15275;51.716;14.324;2023-03-01T04:33:05;17.98;;;9.00;;
27939;SDS011;15275;51.716;14.324;2023-03-01T04:35:32;19.10;;;9.00;;
27939;SDS011;15275;51.716;14.324;2023-03-01T04:37:59;19.20;;;9.23;;
27939;SDS011;15275;51.716;14.324;2023-03-01T04:40:26;17.33;;;8.32;;
27939;SDS011;15275;51.716;14.324;2023-03-01T04:42:52;21.33;;;9.05;;
27939;SDS011;15275;51.716;14.324;2023-03-01T04:45:18;21.73;;;9.07;;
27939;SDS011;15275;51.716;14.324;2023-03-01T04:47:44;20.48;;;8.60;;
27939;SDS011;15275;51.716;14.324;2023-03-01T04:50:12;24.77;;;9.27;;
27939;SDS011;15275;51.716;14.324;2023-03-01T04:52:41;19.88;;;8.40;;
27939;SDS011;15275;51.716;14.324;2023-03-01T04:55:09;21.17;;;9.38;;
27939;SDS011;15275;51.716;14.324;2023-03-01T04:57:36;22.70;;;9.35;;
27939;SDS011;15275;51.716;14.324;2023-03-01T05:00:02;24.98;;;10.43;;
27939;SDS011;15275;51.716;14.324;2023-03-01T05:02:45;23.08;;;9.80;;
27939;SDS011;15275;51.716;14.324;2023-03-01T05:05:24;21.95;;;9.68;;
27939;SDS011;15275;51.716;14.324;2023-03-01T05:08:03;19.13;;;8.13;;
27939;SDS011;15275;51.716;14.324;2023-03-01T05:10:32;22.40;;;8.88;;
27939;SDS011;15275;51.716;14.324;2023-03-01T05:13:00;21.58;;;9.43;;
27939;SDS011;15275;51.716;14.324;2023-03-01T05:15:28;23.67;;;9.65;;
27939;SDS011;15275;51.716;14.324;2023-03-01T05:17:56;22.85;;;10.25;;
27939;SDS011;15275;51.716;14.324;2023-03-01T05:20:25;17.80;;;8.93;;
27939;SDS011;15275;51.716;14.324;2023-03-01T05:22:54;22.20;;;9.57;;
27939;SDS011;15275;51.716;14.324;2023-03-01T05:25:30;19.40;;;9.60;;
27939;SDS011;15275;51.716;14.324;2023-03-01T05:28:01;20.33;;;9.65;;
27939;SDS011;15275;51.716;14.324;2023-03-01T05:30:32;23.23;;;10.13;;
27939;SDS011;15275;51.716;14.324;2023-03-01T05:32:59;25.73;;;11.15;;
27939;SDS011;15275;51.716;14.324;2023-03-01T05:35:26;20.40;;;8.70;;
27939;SDS011;15275;51.716;14.324;2023-03-01T05:37:53;19.63;;;9.63;;
27939;SDS011;15275;51.716;14.324;2023-03-01T05:40:20;22.98;;;10.13;;
27939;SDS011;15275;51.716;14.324;2023-03-01T05:42:50;19.40;;;8.73;;
27939;SDS011;15275;51.716;14.324;2023-03-01T05:45:21;24.52;;;10.48;;
27939;SDS011;15275;51.716;14.324;2023-03-01T05:47:49;24.52;;;10.55;;
27939;SDS011;15275;51.716;14.324;2023-03-01T05:50:20;24.42;;;11.63;;
27939;SDS011;15275;51.716;14.324;2023-03-01T05:55:24;27.35;;;11.95;;
27939;SDS011;15275;51.716;14.324;2023-03-01T05:57:50;23.60;;;11.32;;
27939;SDS011;15275;51.716;14.324;2023-03-01T06:00:17;26.60;;;10.73;;
27939;SDS011;15275;51.716;14.324;2023-03-01T06:02:47;23.23;;;10.23;;
27939;SDS011;15275;51.716;14.324;2023-03-01T06:05:14;24.63;;;10.50;;
27939;SDS011;15275;51.716;14.324;2023-03-01T06:07:40;26.08;;;10.35;;
27939;SDS011;15275;51.716;14.324;2023-03-01T06:10:07;19.98;;;9.88;;
27939;SDS011;15275;51.716;14.324;2023-03-01T06:12:35;25.35;;;10.45;;
27939;SDS011;15275;51.716;14.324;2023-03-01T06:15:04;24.15;;;9.90;;
27939;SDS011;15275;51.716;14.324;2023-03-01T06:17:33;22.85;;;10.63;;
27939;SDS011;15275;51.716;14.324;2023-03-01T06:20:07;22.73;;;10.30;;
27939;SDS011;15275;51.716;14.324;2023-03-01T06:22:45;26.27;;;12.25;;
27939;SDS011;15275;51.716;14.324;2023-03-01T06:25:13;20.42;;;10.50;;
27939;SDS011;15275;51.716;14.324;2023-03-01T06:27:45;23.93;;;11.63;;
27939;SDS011;15275;51.716;14.324;2023-03-01T06:30:12;21.45;;;10.98;;
27939;SDS011;15275;51.716;14.324;2023-03-01T06:32:40;22.85;;;10.63;;
27939;SDS011;15275;51.716;14.324;2023-03-01T06:35:10;25.67;;;11.80;;
27939;SDS011;15275;51.716;14.324;2023-03-01T06:37:38;25.27;;;11.75;;
27939;SDS011;15275;51.716;14.324;2023-03-01T06:40:06;24.92;;;11.93;;
27939;SDS011;15275;51.716;14.324;2023-03-01T06:42:36;27.77;;;12.55;;
27939;SDS011;15275;51.716;14.324;2023-03-01T06:45:05;29.48;;;11.93;;
27939;SDS011;15275;51.716;14.324;2023-03-01T06:47:32;33.03;;;14.40;;
27939;SDS011;15275;51.716;14.324;2023-03-01T06:49:58;31.55;;;12.75;;
27939;SDS011;15275;51.716;14.324;2023-03-01T06:52:26;29.98;;;13.43;;
27939;SDS011;15275;51.716;14.324;2023-03-01T06:54:52;28.75;;;13.20;;
27939;SDS011;15275;51.716;14.324;2023-03-01T06:57:18;29.73;;;12.80;;
27939;SDS011;15275;51.716;14.324;2023-03-01T06:59:44;30.75;;;14.35;;
27939;SDS011;15275;51.716;14.324;2023-03-01T07:02:10;26.38;;;13.07;;
27939;SDS011;15275;51.716;14.324;2023-03-01T07:04:37;28.17;;;13.32;;
27939;SDS011;15275;51.716;14.324;2023-03-01T07:07:03;32.47;;;13.07;;
27939;SDS011;15275;51.716;14.324;2023-03-01T07:09:29;34.50;;;14.82;;
27939;SDS011;15275;51.716;14.324;2023-03-01T07:11:55;37.15;;;16.00;;
27939;SDS011;15275;51.716;14.324;2023-03-01T07:14:22;34.40;;;15.80;;
27939;SDS011;15275;51.716;14.324;2023-03-01T07:16:50;31.27;;;15.93;;
27939;SDS011;15275;51.716;14.324;2023-03-01T07:19:17;36.58;;;16.15;;
27939;SDS011;15275;51.716;14.324;2023-03-01T07:21:43;42.15;;;16.30;;
27939;SDS011;15275;51.716;14.324;2023-03-01T07:24:09;45.08;;;17.10;;
27939;SDS011;15275;51.716;14.324;2023-03-01T07:26:36;39.47;;;16.27;;
27939;SDS011;15275;51.716;14.324;2023-03-01T07:29:03;34.42;;;16.02;;
27939;SDS011;15275;51.716;14.324;2023-03-01T07:31:30;40.78;;;17.27;;
27939;SDS011;15275;51.716;14.324;2023-03-01T07:33:57;60.63;;;24.95;;
27939;SDS011;15275;51.716;14.324;2023-03-01T07:36:23;56.13;;;21.27;;
27939;SDS011;15275;51.716;14.324;2023-03-01T07:38:50;36.03;;;16.98;;
27939;SDS011;15275;51.716;14.324;2023-03-01T07:41:16;38.22;;;16.45;;
27939;SDS011;15275;51.716;14.324;2023-03-01T07:43:42;40.95;;;16.35;;
27939;SDS011;15275;51.716;14.324;2023-03-01T07:46:08;39.65;;;16.35;;
27939;SDS011;15275;51.716;14.324;2023-03-01T07:48:34;31.58;;;15.07;;
27939;SDS011;15275;51.716;14.324;2023-03-01T07:51:01;39.15;;;19.05;;
27939;SDS011;15275;51.716;14.324;2023-03-01T07:53:29;40.42;;;17.23;;
27939;SDS011;15275;51.716;14.324;2023-03-01T07:58:38;46.03;;;19.50;;
27939;SDS011;15275;51.716;14.324;2023-03-01T08:01:07;40.35;;;19.88;;
27939;SDS011;15275;51.716;14.324;2023-03-01T08:03:40;43.25;;;18.50;;
27939;SDS011;15275;51.716;14.324;2023-03-01T08:06:07;44.47;;;21.23;;
27939;SDS011;15275;51.716;14.324;2023-03-01T08:08:34;43.20;;;19.45;;
27939;SDS011;15275;51.716;14.324;2023-03-01T08:11:02;42.88;;;20.02;;
27939;SDS011;15275;51.716;14.324;2023-03-01T08:13:30;39.20;;;18.55;;
27939;SDS011;15275;51.716;14.324;2023-03-01T08:16:11;42.55;;;19.15;;
27939;SDS011;15275;51.716;14.324;2023-03-01T08:18:40;49.25;;;20.70;;
27939;SDS011;15275;51.716;14.324;2023-03-01T08:21:07;46.45;;;20.77;;
27939;SDS011;15275;51.716;14.324;2023-03-01T08:23:36;45.70;;;20.33;;
27939;SDS011;15275;51.716;14.324;2023-03-01T08:26:23;45.88;;;20.92;;
27939;SDS011;15275;51.716;14.324;2023-03-01T08:28:48;39.90;;;20.08;;
27939;SDS011;15275;51.716;14.324;2023-03-01T08:33:49;38.15;;;18.23;;
27939;SDS011;15275;51.716;14.324;2023-03-01T08:36:20;38.53;;;17.67;;
27939;SDS011;15275;51.716;14.324;2023-03-01T08:38:52;42.20;;;18.35;;
27939;SDS011;15275;51.716;14.324;2023-03-01T08:41:18;42.75;;;19.83;;
27939;SDS011;15275;51.716;14.324;2023-03-01T08:43:44;33.53;;;17.98;;
27939;SDS011;15275;51.716;14.324;2023-03-01T08:46:10;37.33;;;18.25;;
27939;SDS011;15275;51.716;14.324;2023-03-01T08:48:37;32.33;;;16.85;;
27939;SDS011;15275;51.716;14.324;2023-03-01T08:51:13;35.45;;;17.77;;
27939;SDS011;15275;51.716;14.324;2023-03-01T08:53:44;34.03;;;17.35;;
27939;SDS011;15275;51.716;14.324;2023-03-01T08:56:11;32.42;;;17.20;;
27939;SDS011;15275;51.716;14.324;2023-03-01T08:58:38;34.53;;;17.75;;
27939;SDS011;15275;51.716;14.324;2023-03-01T09:01:08;33.30;;;16.58;;
27939;SDS011;15275;51.716;14.324;2023-03-01T09:03:35;35.55;;;16.90;;
27939;SDS011;15275;51.716;14.324;2023-03-01T09:06:02;37.13;;;17.33;;
27939;SDS011;15275;51.716;14.324;2023-03-01T09:08:30;33.92;;;17.65;;
27939;SDS011;15275;51.716;14.324;2023-03-01T09:11:01;29.98;;;14.95;;
27939;SDS011;15275;51.716;14.324;2023-03-01T09:13:28;30.60;;;16.80;;
27939;SDS011;15275;51.716;14.324;2023-03-01T09:15:58;30.88;;;15.50;;
27939;SDS011;15275;51.716;14.324;2023-03-01T09:18:26;34.65;;;16.42;;
27939;SDS011;15275;51.716;14.324;2023-03-01T09:20:53;34.05;;;17.13;;
27939;SDS011;15275;51.716;14.324;2023-03-01T09:23:39;28.42;;;15.75;;
27939;SDS011;15275;51.716;14.324;2023-03-01T09:26:08;31.08;;;15.70;;
27939;SDS011;15275;51.716;14.324;2023-03-01T09:28:44;28.77;;;15.68;;
27939;SDS011;15275;51.716;14.324;2023-03-01T09:31:11;27.73;;;14.23;;
27939;SDS011;15275;51.716;14.324;2023-03-01T09:33:38;32.35;;;14.00;;
27939;SDS011;15275;51.716;14.324;2023-03-01T09:36:07;28.23;;;15.63;;
27939;SDS011;15275;51.716;14.324;2023-03-01T09:38:41;31.20;;;15.65;;
27939;SDS011;15275;51.716;14.324;2023-03-01T09:41:11;31.90;;;15.85;;
27939;SDS011;15275;51.716;14.324;2023-03-01T09:44:18;29.60;;;15.77;;
27939;SDS011;15275;51.716;14.324;2023-03-01T09:46:53;20.50;;;11.70;;
27939;SDS011;15275;51.716;14.324;2023-03-01T09:49:20;29.08;;;13.85;;
27939;SDS011;15275;51.716;14.324;2023-03-01T09:52:00;26.75;;;14.07;;
27939;SDS011;15275;51.716;14.324;2023-03-01T09:54:46;26.45;;;12.98;;
27939;SDS011;15275;51.716;14.324;2023-03-01T10:00:16;23.15;;;12.07;;
27939;SDS011;15275;51.716;14.324;2023-03-01T10:02:51;27.60;;;13.65;;
27939;SDS011;15275;51.716;14.324;2023-03-01T10:11:15;27.20;;;13.20;;
27939;SDS011;15275;51.716;14.324;2023-03-01T10:13:55;27.48;;;12.75;;
27939;SDS011;15275;51.716;14.324;2023-03-01T10:19:21;27.77;;;14.25;;
27939;SDS011;15275;51.716;14.324;2023-03-01T10:22:27;22.98;;;12.27;;
27939;SDS011;15275;51.716;14.324;2023-03-01T10:24:56;22.08;;;12.32;;
27939;SDS011;15275;51.716;14.324;2023-03-01T10:27:26;24.40;;;11.98;;
27939;SDS011;15275;51.716;14.324;2023-03-01T10:33:04;25.45;;;12.43;;
27939;SDS011;15275;51.716;14.324;2023-03-01T10:35:53;21.02;;;10.52;;
27939;SDS011;15275;51.716;14.324;2023-03-01T10:38:19;27.02;;;13.05;;
27939;SDS011;15275;51.716;14.324;2023-03-01T10:40:53;23.25;;;12.80;;
27939;SDS011;15275;51.716;14.324;2023-03-01T10:43:22;29.75;;;14.77;;
27939;SDS011;15275;51.716;14.324;2023-03-01T10:45:55;22.77;;;12.15;;
27939;SDS011;15275;51.716;14.324;2023-03-01T10:48:22;23.92;;;12.32;;
27939;SDS011;15275;51.716;14.324;2023-03-01T10:53:28;20.08;;;9.93;;
27939;SDS011;15275;51.716;14.324;2023-03-01T10:56:08;20.90;;;10.35;;
27939;SDS011;15275;51.716;14.324;2023-03-01T10:58:37;18.75;;;9.63;;
27939;SDS011;15275;51.716;14.324;2023-03-01T11:01:26;20.40;;;9.82;;
27939;SDS011;15275;51.716;14.324;2023-03-01T11:04:29;18.67;;;9.77;;
27939;SDS011;15275;51.716;14.324;2023-03-01T11:06:57;20.23;;;9.90;;
27939;SDS011;15275;51.716;14.324;2023-03-01T11:09:24;19.45;;;10.40;;
27939;SDS011;15275;51.716;14.324;2023-03-01T11:11:52;20.95;;;11.18;;
27939;SDS011;15275;51.716;14.324;2023-03-01T11:14:24;20.70;;;10.23;;
27939;SDS011;15275;51.716;14.324;2023-03-01T11:17:03;19.05;;;10.70;;
27939;SDS011;15275;51.716;14.324;2023-03-01T11:22:54;19.67;;;10.07;;
27939;SDS011;15275;51.716;14.324;2023-03-01T11:25:38;20.05;;;10.55;;
27939;SDS011;15275;51.716;14.324;2023-03-01T11:28:11;22.30;;;10.38;;
27939;SDS011;15275;51.716;14.324;2023-03-01T11:36:03;27.27;;;10.50;;
27939;SDS011;15275;51.716;14.324;2023-03-01T11:38:40;22.92;;;11.02;;
27939;SDS011;15275;51.716;14.324;2023-03-01T11:41:08;19.83;;;10.23;;
27939;SDS011;15275;51.716;14.324;2023-03-01T11:43:44;22.67;;;10.10;;
27939;SDS011;15275;51.716;14.324;2023-03-01T11:57:34;15.93;;;8.30;;
27939;SDS011;15275;51.716;14.324;2023-03-01T12:09:17;15.52;;;8.85;;
27939;SDS011;15275;51.716;14.324;2023-03-01T12:14:59;14.32;;;7.97;;
27939;SDS011;15275;51.716;14.324;2023-03-01T12:29:29;14.82;;;7.68;;
27939;SDS011;15275;51.716;14.324;2023-03-01T12:35:06;12.38;;;6.07;;
27939;SDS011;15275;51.716;14.324;2023-03-01T12:38:30;11.82;;;6.43;;
27939;SDS011;15275;51.716;14.324;2023-03-01T12:49:23;9.00;;;4.95;;
27939;SDS011;15275;51.716;14.324;2023-03-01T12:52:04;11.65;;;5.90;;
27939;SDS011;15275;51.716;14.324;2023-03-01T12:54:35;9.93;;;5.22;;
27939;SDS011;15275;51.716;14.324;2023-03-01T12:57:11;9.88;;;5.60;;
27939;SDS011;15275;51.716;14.324;2023-03-01T13:09:14;13.23;;;6.00;;
27939;SDS011;15275;51.716;14.324;2023-03-01T13:11:52;10.48;;;5.38;;
27939;SDS011;15275;51.716;14.324;2023-03-01T13:16:48;10.15;;;6.03;;
27939;SDS011;15275;51.716;14.324;2023-03-01T13:19:23;11.50;;;5.95;;
27939;SDS011;15275;51.716;14.324;2023-03-01T13:21:54;12.25;;;6.07;;
27939;SDS011;15275;51.716;14.324;2023-03-01T13:29:58;12.13;;;5.90;;
27939;SDS011;15275;51.716;14.324;2023-03-01T13:32:32;13.70;;;6.55;;
27939;SDS011;15275;51.716;14.324;2023-03-01T13:41:09;15.77;;;7.18;;
27939;SDS011;15275;51.716;14.324;2023-03-01T13:43:37;11.98;;;6.38;;
27939;SDS011;15275;51.716;14.324;2023-03-01T13:46:21;13.82;;;6.60;;
27939;SDS011;15275;51.716;14.324;2023-03-01T13:48:53;12.90;;;7.00;;
27939;SDS011;15275;51.716;14.324;2023-03-01T13:51:25;13.57;;;6.60;;
27939;SDS011;15275;51.716;14.324;2023-03-01T13:53:53;13.90;;;6.95;;
27939;SDS011;15275;51.716;14.324;2023-03-01T13:56:27;11.00;;;6.32;;
27939;SDS011;15275;51.716;14.324;2023-03-01T13:59:02;13.07;;;6.90;;
27939;SDS011;15275;51.716;14.324;2023-03-01T14:01:38;12.43;;;6.50;;
27939;SDS011;15275;51.716;14.324;2023-03-01T14:04:18;12.95;;;7.43;;
27939;SDS011;15275;51.716;14.324;2023-03-01T14:07:10;13.73;;;7.90;;
27939;SDS011;15275;51.716;14.324;2023-03-01T14:09:41;13.73;;;7.25;;
27939;SDS011;15275;51.716;14.324;2023-03-01T14:16:08;14.98;;;6.88;;
27939;SDS011;15275;51.716;14.324;2023-03-01T14:18:36;14.07;;;7.22;;
27939;SDS011;15275;51.716;14.324;2023-03-01T14:21:17;15.73;;;7.00;;
27939;SDS011;15275;51.716;14.324;2023-03-01T14:23:43;14.40;;;7.68;;
27939;SDS011;15275;51.716;14.324;2023-03-01T14:26:09;15.68;;;8.10;;
27939;SDS011;15275;51.716;14.324;2023-03-01T14:28:37;19.00;;;8.23;;
27939;SDS011;15275;51.716;14.324;2023-03-01T14:31:28;14.95;;;8.25;;
27939;SDS011;15275;51.716;14.324;2023-03-01T14:34:03;14.45;;;7.43;;
27939;SDS011;15275;51.716;14.324;2023-03-01T14:36:31;14.27;;;7.57;;
27939;SDS011;15275;51.716;14.324;2023-03-01T14:38:59;12.05;;;7.07;;
27939;SDS011;15275;51.716;14.324;2023-03-01T14:41:30;16.75;;;7.82;;
27939;SDS011;15275;51.716;14.324;2023-03-01T14:44:02;15.02;;;7.38;;
27939;SDS011;15275;51.716;14.324;2023-03-01T14:46:37;13.35;;;7.05;;
27939;SDS011;15275;51.716;14.324;2023-03-01T14:49:08;12.52;;;6.45;;
27939;SDS011;15275;51.716;14.324;2023-03-01T14:51:39;14.80;;;7.18;;
27939;SDS011;15275;51.716;14.324;2023-03-01T14:54:18;13.10;;;6.47;;
27939;SDS011;15275;51.716;14.324;2023-03-01T14:56:48;12.75;;;6.05;;
27939;SDS011;15275;51.716;14.324;2023-03-01T14:59:15;13.82;;;6.80;;
27939;SDS011;15275;51.716;14.324;2023-03-01T15:01:48;8.67;;;5.67;;
27939;SDS011;15275;51.716;14.324;2023-03-01T15:04:16;12.43;;;5.90;;
27939;SDS011;15275;51.716;14.324;2023-03-01T15:06:45;10.43;;;5.85;;
27939;SDS011;15275;51.716;14.324;2023-03-01T15:09:14;13.55;;;6.28;;
27939;SDS011;15275;51.716;14.324;2023-03-01T15:11:41;11.13;;;5.47;;
27939;SDS011;15275;51.716;14.324;2023-03-01T15:17:19;11.48;;;5.25;;
27939;SDS011;15275;51.716;14.324;2023-03-01T15:19:55;8.10;;;4.80;;
27939;SDS011;15275;51.716;14.324;2023-03-01T15:22:21;10.35;;;5.03;;
27939;SDS011;15275;51.716;14.324;2023-03-01T15:24:50;8.52;;;5.03;;
27939;SDS011;15275;51.716;14.324;2023-03-01T15:27:18;11.80;;;4.53;;
27939;SDS011;15275;51.716;14.324;2023-03-01T15:29:48;10.68;;;4.47;;
27939;SDS011;15275;51.716;14.324;2023-03-01T15:35:33;6.63;;;3.72;;
27939;SDS011;15275;51.716;14.324;2023-03-01T15:41:30;7.57;;;4.18;;
27939;SDS011;15275;51.716;14.324;2023-03-01T15:44:25;12.55;;;4.78;;
27939;SDS011;15275;51.716;14.324;2023-03-01T15:46:56;8.20;;;4.47;;
27939;SDS011;15275;51.716;14.324;2023-03-01T15:49:39;8.77;;;4.35;;
27939;SDS011;15275;51.716;14.324;2023-03-01T15:52:12;8.43;;;4.43;;
27939;SDS011;15275;51.716;14.324;2023-03-01T15:54:53;9.02;;;3.83;;
27939;SDS011;15275;51.716;14.324;2023-03-01T15:57:32;9.05;;;3.85;;
27939;SDS011;15275;51.716;14.324;2023-03-01T15:59:57;8.10;;;4.47;;
27939;SDS011;15275;51.716;14.324;2023-03-01T16:02:23;7.68;;;4.10;;
27939;SDS011;15275;51.716;14.324;2023-03-01T16:04:49;9.35;;;4.35;;
27939;SDS011;15275;51.716;14.324;2023-03-01T16:07:16;7.07;;;3.72;;
27939;SDS011;15275;51.716;14.324;2023-03-01T16:09:42;6.80;;;3.83;;
27939;SDS011;15275;51.716;14.324;2023-03-01T16:12:14;8.15;;;4.30;;
27939;SDS011;15275;51.716;14.324;2023-03-01T16:14:41;6.22;;;3.42;;
27939;SDS011;15275;51.716;14.324;2023-03-01T16:17:07;7.03;;;4.07;;
27939;SDS011;15275;51.716;14.324;2023-03-01T16:19:35;7.13;;;3.85;;
27939;SDS011;15275;51.716;14.324;2023-03-01T16:22:02;10.52;;;4.30;;
27939;SDS011;15275;51.716;14.324;2023-03-01T16:24:29;10.65;;;3.83;;
27939;SDS011;15275;51.716;14.324;2023-03-01T16:26:55;10.15;;;3.92;;
27939;SDS011;15275;51.716;14.324;2023-03-01T16:29:21;6.95;;;4.07;;
27939;SDS011;15275;51.716;14.324;2023-03-01T16:31:47;8.60;;;4.47;;
27939;SDS011;15275;51.716;14.324;2023-03-01T16:34:13;7.72;;;4.03;;
27939;SDS011;15275;51.716;14.324;2023-03-01T16:36:39;8.95;;;4.63;;
27939;SDS011;15275;51.716;14.324;2023-03-01T16:39:06;8.48;;;4.57;;
27939;SDS011;15275;51.716;14.324;2023-03-01T16:41:32;7.03;;;4.00;;
27939;SDS011;15275;51.716;14.324;2023-03-01T16:43:58;7.97;;;3.92;;
27939;SDS011;15275;51.716;14.324;2023-03-01T16:46:26;8.98;;;4.43;;
27939;SDS011;15275;51.716;14.324;2023-03-01T16:48:53;11.48;;;4.70;;
27939;SDS011;15275;51.716;14.324;2023-03-01T16:51:20;9.13;;;4.70;;
27939;SDS011;15275;51.716;14.324;2023-03-01T16:53:47;10.52;;;4.18;;
27939;SDS011;15275;51.716;14.324;2023-03-01T16:56:14;8.70;;;4.45;;